sensor_id;sensor_type;location;lat;lon;timestamp;P1;durP1;ratioP1;P2;durP2;ratioP2
5209;SDS011;2624;48.048;11.706;2023-04-07T00:01:57;3.47;;;2.70;;
5209;SDS011;2624;48.048;11.706;2023-04-07T00:07:00;3.87;;;2.70;;
5209;SDS011;2624;48.048;11.706;2023-04-07T00:12:02;5.47;;;2.67;;
5209;SDS011;2624;48.048;11.706;2023-04-07T00:17:03;2.70;;;2.50;;
5209;SDS011;2624;48.048;11.706;2023-04-07T00:22:07;5.27;;;3.10;;
5209;SDS011;2624;48.048;11.706;2023-04-07T00:27:08;4.80;;;3.20;;
5209;SDS011;2624;48.048;11.706;2023-04-07T00:32:10;2.47;;;2.27;;
5209;SDS011;2624;48.048;11.706;2023-04-07T00:37:13;2.93;;;2.30;;
5209;SDS011;2624;48.048;11.706;2023-04-07T00:42:15;5.53;;;3.33;;
5209;SDS011;2624;48.048;11.706;2023-04-07T00:47:17;4.13;;;2.80;;
5209;SDS011;2624;48.048;11.706;2023-04-07T00:52:20;5.30;;;3.60;;
5209;SDS011;2624;48.048;11.706;2023-04-07T00:57:31;4.03;;;2.00;;
5209;SDS011;2624;48.048;11.706;2023-04-07T01:02:35;3.20;;;2.93;;
5209;SDS011;2624;48.048;11.706;2023-04-07T01:07:46;8.47;;;3.90;;
5209;SDS011;2624;48.048;11.706;2023-04-07T01:12:53;3.17;;;2.87;;
5209;SDS011;2624;48.048;11.706;2023-04-07T01:18:04;3.23;;;2.77;;
5209;SDS011;2624;48.048;11.706;2023-04-07T01:23:12;4.40;;;3.30;;
5209;SDS011;2624;48.048;11.706;2023-04-07T01:28:29;2.93;;;2.67;;
5209;SDS011;2624;48.048;11.706;2023-04-07T01:33:43;4.43;;;3.27;;
5209;SDS011;2624;48.048;11.706;2023-04-07T01:38:46;3.83;;;2.83;;
5209;SDS011;2624;48.048;11.706;2023-04-07T01:43:51;7.30;;;2.90;;
5209;SDS011;2624;48.048;11.706;2023-04-07T01:48:55;5.77;;;3.00;;
5209;SDS011;2624;48.048;11.706;2023-04-07T01:53:58;5.77;;;3.00;;
5209;SDS011;2624;48.048;11.706;2023-04-07T01:59:01;2.67;;;2.20;;
5209;SDS011;2624;48.048;11.706;2023-04-07T02:04:06;2.20;;;2.10;;
5209;SDS011;2624;48.048;11.706;2023-04-07T02:09:12;2.13;;;1.70;;
5209;SDS011;2624;48.048;11.706;2023-04-07T02:14:16;2.10;;;1.90;;
5209;SDS011;2624;48.048;11.706;2023-04-07T02:19:23;2.00;;;1.87;;
5209;SDS011;2624;48.048;11.706;2023-04-07T02:24:25;3.13;;;2.33;;
5209;SDS011;2624;48.048;11.706;2023-04-07T02:29:26;5.07;;;2.20;;
5209;SDS011;2624;48.048;11.706;2023-04-07T02:34:30;3.43;;;2.50;;
5209;SDS011;2624;48.048;11.706;2023-04-07T02:39:31;3.33;;;2.23;;
5209;SDS011;2624;48.048;11.706;2023-04-07T02:44:33;2.37;;;2.13;;
5209;SDS011;2624;48.048;11.706;2023-04-07T02:49:36;2.03;;;1.93;;
5209;SDS011;2624;48.048;11.706;2023-04-07T02:54:38;5.40;;;2.00;;
5209;SDS011;2624;48.048;11.706;2023-04-07T02:59:40;1.63;;;1.53;;
5209;SDS011;2624;48.048;11.706;2023-04-07T03:04:43;1.80;;;1.70;;
5209;SDS011;2624;48.048;11.706;2023-04-07T03:09:45;4.27;;;1.80;;
5209;SDS011;2624;48.048;11.706;2023-04-07T03:14:46;2.27;;;2.10;;
5209;SDS011;2624;48.048;11.706;2023-04-07T03:19:50;2.00;;;1.90;;
5209;SDS011;2624;48.048;11.706;2023-04-07T03:24:51;1.63;;;1.00;;
5209;SDS011;2624;48.048;11.706;2023-04-07T03:29:53;2.40;;;2.20;;
5209;SDS011;2624;48.048;11.706;2023-04-07T03:34:56;2.17;;;1.97;;
5209;SDS011;2624;48.048;11.706;2023-04-07T03:39:58;2.33;;;2.13;;
5209;SDS011;2624;48.048;11.706;2023-04-07T03:45:00;3.30;;;2.60;;
5209;SDS011;2624;48.048;11.706;2023-04-07T03:50:03;2.50;;;2.10;;
5209;SDS011;2624;48.048;11.706;2023-04-07T03:55:06;2.20;;;2.10;;
5209;SDS011;2624;48.048;11.706;2023-04-07T04:00:09;3.60;;;2.70;;
5209;SDS011;2624;48.048;11.706;2023-04-07T04:05:13;6.73;;;3.10;;
5209;SDS011;2624;48.048;11.706;2023-04-07T04:10:15;3.67;;;2.53;;
5209;SDS011;2624;48.048;11.706;2023-04-07T04:15:17;3.57;;;2.73;;
5209;SDS011;2624;48.048;11.706;2023-04-07T04:20:20;2.27;;;1.37;;
5209;SDS011;2624;48.048;11.706;2023-04-07T04:25:22;2.40;;;1.70;;
5209;SDS011;2624;48.048;11.706;2023-04-07T04:30:24;2.57;;;2.27;;
5209;SDS011;2624;48.048;11.706;2023-04-07T04:35:27;1.83;;;1.73;;
5209;SDS011;2624;48.048;11.706;2023-04-07T04:40:29;3.30;;;3.00;;
5209;SDS011;2624;48.048;11.706;2023-04-07T04:45:31;3.70;;;2.10;;
5209;SDS011;2624;48.048;11.706;2023-04-07T04:50:34;3.40;;;2.87;;
5209;SDS011;2624;48.048;11.706;2023-04-07T04:55:36;6.00;;;2.70;;
5209;SDS011;2624;48.048;11.706;2023-04-07T05:00:40;2.80;;;2.60;;
5209;SDS011;2624;48.048;11.706;2023-04-07T05:05:43;2.73;;;2.33;;
5209;SDS011;2624;48.048;11.706;2023-04-07T05:10:47;4.37;;;3.17;;
5209;SDS011;2624;48.048;11.706;2023-04-07T05:15:49;4.33;;;2.80;;
5209;SDS011;2624;48.048;11.706;2023-04-07T05:20:52;2.60;;;2.40;;
5209;SDS011;2624;48.048;11.706;2023-04-07T05:25:54;4.60;;;2.83;;
5209;SDS011;2624;48.048;11.706;2023-04-07T05:30:56;5.10;;;3.70;;
5209;SDS011;2624;48.048;11.706;2023-04-07T05:35:59;2.97;;;2.70;;
5209;SDS011;2624;48.048;11.706;2023-04-07T05:41:01;8.57;;;3.83;;
5209;SDS011;2624;48.048;11.706;2023-04-07T05:46:02;4.93;;;2.87;;
5209;SDS011;2624;48.048;11.706;2023-04-07T05:51:06;3.60;;;3.00;;
5209;SDS011;2624;48.048;11.706;2023-04-07T05:56:07;4.90;;;3.07;;
5209;SDS011;2624;48.048;11.706;2023-04-07T06:01:09;6.70;;;3.10;;
5209;SDS011;2624;48.048;11.706;2023-04-07T06:06:13;7.80;;;4.73;;
5209;SDS011;2624;48.048;11.706;2023-04-07T06:11:15;3.90;;;3.60;;
5209;SDS011;2624;48.048;11.706;2023-04-07T06:16:17;3.80;;;3.10;;
5209;SDS011;2624;48.048;11.706;2023-04-07T06:21:20;6.90;;;3.97;;
5209;SDS011;2624;48.048;11.706;2023-04-07T06:26:22;7.20;;;4.20;;
5209;SDS011;2624;48.048;11.706;2023-04-07T06:31:24;7.37;;;4.73;;
5209;SDS011;2624;48.048;11.706;2023-04-07T06:36:27;5.80;;;3.50;;
5209;SDS011;2624;48.048;11.706;2023-04-07T06:41:29;5.83;;;3.70;;
5209;SDS011;2624;48.048;11.706;2023-04-07T06:46:31;7.63;;;4.77;;
5209;SDS011;2624;48.048;11.706;2023-04-07T06:51:34;11.50;;;4.37;;
5209;SDS011;2624;48.048;11.706;2023-04-07T06:56:36;8.23;;;4.83;;
5209;SDS011;2624;48.048;11.706;2023-04-07T07:01:38;6.43;;;4.40;;
5209;SDS011;2624;48.048;11.706;2023-04-07T07:06:41;8.17;;;4.50;;
5209;SDS011;2624;48.048;11.706;2023-04-07T07:11:43;7.17;;;5.13;;
5209;SDS011;2624;48.048;11.706;2023-04-07T07:16:45;6.37;;;4.33;;
5209;SDS011;2624;48.048;11.706;2023-04-07T07:21:48;5.50;;;4.30;;
5209;SDS011;2624;48.048;11.706;2023-04-07T07:26:49;12.60;;;5.57;;
5209;SDS011;2624;48.048;11.706;2023-04-07T07:31:51;6.60;;;4.23;;
5209;SDS011;2624;48.048;11.706;2023-04-07T07:36:54;6.10;;;3.97;;
5209;SDS011;2624;48.048;11.706;2023-04-07T07:41:56;5.97;;;3.93;;
5209;SDS011;2624;48.048;11.706;2023-04-07T07:46:58;8.07;;;4.93;;
5209;SDS011;2624;48.048;11.706;2023-04-07T07:52:01;6.10;;;4.57;;
5209;SDS011;2624;48.048;11.706;2023-04-07T07:57:03;8.10;;;5.40;;
5209;SDS011;2624;48.048;11.706;2023-04-07T08:02:05;7.30;;;5.17;;
5209;SDS011;2624;48.048;11.706;2023-04-07T08:07:08;7.07;;;4.30;;
5209;SDS011;2624;48.048;11.706;2023-04-07T08:12:10;14.70;;;4.20;;
5209;SDS011;2624;48.048;11.706;2023-04-07T08:17:12;4.47;;;3.50;;
5209;SDS011;2624;48.048;11.706;2023-04-07T08:22:15;5.60;;;4.50;;
5209;SDS011;2624;48.048;11.706;2023-04-07T08:27:18;5.27;;;4.77;;
5209;SDS011;2624;48.048;11.706;2023-04-07T08:32:20;6.30;;;4.80;;
5209;SDS011;2624;48.048;11.706;2023-04-07T08:37:23;5.63;;;3.80;;
5209;SDS011;2624;48.048;11.706;2023-04-07T08:42:26;5.83;;;4.00;;
5209;SDS011;2624;48.048;11.706;2023-04-07T08:47:30;6.03;;;4.00;;
5209;SDS011;2624;48.048;11.706;2023-04-07T08:52:38;8.53;;;4.83;;
5209;SDS011;2624;48.048;11.706;2023-04-07T08:57:44;6.57;;;4.33;;
5209;SDS011;2624;48.048;11.706;2023-04-07T09:02:46;6.40;;;5.00;;
5209;SDS011;2624;48.048;11.706;2023-04-07T09:07:52;9.63;;;5.93;;
5209;SDS011;2624;48.048;11.706;2023-04-07T09:12:53;5.70;;;4.33;;
5209;SDS011;2624;48.048;11.706;2023-04-07T09:17:55;5.30;;;4.80;;
5209;SDS011;2624;48.048;11.706;2023-04-07T09:22:59;6.37;;;4.20;;
5209;SDS011;2624;48.048;11.706;2023-04-07T09:28:01;6.90;;;4.10;;
5209;SDS011;2624;48.048;11.706;2023-04-07T09:33:04;6.73;;;4.43;;
5209;SDS011;2624;48.048;11.706;2023-04-07T09:38:08;4.20;;;3.80;;
5209;SDS011;2624;48.048;11.706;2023-04-07T09:43:13;6.50;;;4.23;;
5209;SDS011;2624;48.048;11.706;2023-04-07T09:48:17;5.03;;;4.10;;
5209;SDS011;2624;48.048;11.706;2023-04-07T09:53:21;8.13;;;4.60;;
5209;SDS011;2624;48.048;11.706;2023-04-07T09:58:42;5.70;;;4.07;;
5209;SDS011;2624;48.048;11.706;2023-04-07T10:03:46;4.50;;;4.07;;
5209;SDS011;2624;48.048;11.706;2023-04-07T10:08:51;6.83;;;4.70;;
5209;SDS011;2624;48.048;11.706;2023-04-07T10:13:52;5.73;;;3.47;;
5209;SDS011;2624;48.048;11.706;2023-04-07T10:18:54;5.03;;;4.53;;
5209;SDS011;2624;48.048;11.706;2023-04-07T10:23:58;8.37;;;4.03;;
5209;SDS011;2624;48.048;11.706;2023-04-07T10:29:09;6.10;;;4.20;;
5209;SDS011;2624;48.048;11.706;2023-04-07T10:34:14;9.40;;;3.10;;
5209;SDS011;2624;48.048;11.706;2023-04-07T10:39:20;3.13;;;1.90;;
5209;SDS011;2624;48.048;11.706;2023-04-07T10:44:45;4.43;;;3.13;;
5209;SDS011;2624;48.048;11.706;2023-04-07T10:55:30;5.00;;;3.17;;
5209;SDS011;2624;48.048;11.706;2023-04-07T11:00:35;6.70;;;4.53;;
5209;SDS011;2624;48.048;11.706;2023-04-07T11:05:36;3.80;;;2.80;;
5209;SDS011;2624;48.048;11.706;2023-04-07T11:10:40;4.60;;;3.20;;
5209;SDS011;2624;48.048;11.706;2023-04-07T11:15:48;4.10;;;2.40;;
5209;SDS011;2624;48.048;11.706;2023-04-07T11:20:52;6.23;;;4.10;;
5209;SDS011;2624;48.048;11.706;2023-04-07T11:25:59;4.33;;;3.93;;
5209;SDS011;2624;48.048;11.706;2023-04-07T11:31:02;4.00;;;3.60;;
5209;SDS011;2624;48.048;11.706;2023-04-07T11:36:05;4.47;;;2.47;;
5209;SDS011;2624;48.048;11.706;2023-04-07T11:41:12;3.07;;;2.70;;
5209;SDS011;2624;48.048;11.706;2023-04-07T11:46:15;4.20;;;3.40;;
5209;SDS011;2624;48.048;11.706;2023-04-07T11:51:19;4.07;;;3.70;;
5209;SDS011;2624;48.048;11.706;2023-04-07T11:56:24;4.23;;;3.60;;
5209;SDS011;2624;48.048;11.706;2023-04-07T12:01:37;3.80;;;3.30;;
5209;SDS011;2624;48.048;11.706;2023-04-07T12:06:40;23.17;;;6.37;;
5209;SDS011;2624;48.048;11.706;2023-04-07T12:11:47;4.40;;;3.13;;
5209;SDS011;2624;48.048;11.706;2023-04-07T12:16:49;3.80;;;3.43;;
5209;SDS011;2624;48.048;11.706;2023-04-07T12:21:52;4.27;;;2.90;;
5209;SDS011;2624;48.048;11.706;2023-04-07T12:26:55;7.10;;;3.73;;
5209;SDS011;2624;48.048;11.706;2023-04-07T12:31:57;3.90;;;1.90;;
5209;SDS011;2624;48.048;11.706;2023-04-07T12:36:58;3.67;;;3.17;;
5209;SDS011;2624;48.048;11.706;2023-04-07T12:42:02;4.00;;;3.40;;
5209;SDS011;2624;48.048;11.706;2023-04-07T12:47:04;3.90;;;3.07;;
5209;SDS011;2624;48.048;11.706;2023-04-07T12:52:05;3.43;;;3.17;;
5209;SDS011;2624;48.048;11.706;2023-04-07T12:57:09;3.50;;;2.73;;
5209;SDS011;2624;48.048;11.706;2023-04-07T13:02:11;7.37;;;4.37;;
5209;SDS011;2624;48.048;11.706;2023-04-07T13:07:13;1.43;;;1.40;;
5209;SDS011;2624;48.048;11.706;2023-04-07T13:12:16;3.67;;;3.07;;
5209;SDS011;2624;48.048;11.706;2023-04-07T13:17:18;5.80;;;4.30;;
5209;SDS011;2624;48.048;11.706;2023-04-07T13:22:20;3.73;;;2.37;;
5209;SDS011;2624;48.048;11.706;2023-04-07T13:27:24;4.37;;;3.80;;
5209;SDS011;2624;48.048;11.706;2023-04-07T13:32:26;2.23;;;1.67;;
5209;SDS011;2624;48.048;11.706;2023-04-07T13:37:28;1.27;;;1.17;;
5209;SDS011;2624;48.048;11.706;2023-04-07T13:42:31;9.40;;;3.60;;
5209;SDS011;2624;48.048;11.706;2023-04-07T13:47:33;1.57;;;1.47;;
5209;SDS011;2624;48.048;11.706;2023-04-07T13:52:35;6.10;;;4.50;;
5209;SDS011;2624;48.048;11.706;2023-04-07T13:57:38;5.23;;;4.13;;
5209;SDS011;2624;48.048;11.706;2023-04-07T14:02:39;2.80;;;2.60;;
5209;SDS011;2624;48.048;11.706;2023-04-07T14:07:41;7.70;;;4.67;;
5209;SDS011;2624;48.048;11.706;2023-04-07T14:12:44;6.47;;;3.80;;
5209;SDS011;2624;48.048;11.706;2023-04-07T14:17:47;7.10;;;4.40;;
5209;SDS011;2624;48.048;11.706;2023-04-07T14:22:49;6.33;;;4.30;;
5209;SDS011;2624;48.048;11.706;2023-04-07T14:27:52;9.27;;;5.27;;
5209;SDS011;2624;48.048;11.706;2023-04-07T14:32:54;4.77;;;4.27;;
5209;SDS011;2624;48.048;11.706;2023-04-07T14:37:56;4.43;;;2.73;;
5209;SDS011;2624;48.048;11.706;2023-04-07T14:42:59;6.30;;;4.23;;
5209;SDS011;2624;48.048;11.706;2023-04-07T14:48:01;7.07;;;4.37;;
5209;SDS011;2624;48.048;11.706;2023-04-07T14:53:03;7.97;;;5.10;;
5209;SDS011;2624;48.048;11.706;2023-04-07T14:58:07;5.00;;;3.97;;
5209;SDS011;2624;48.048;11.706;2023-04-07T15:03:08;4.60;;;3.83;;
5209;SDS011;2624;48.048;11.706;2023-04-07T15:08:10;3.90;;;3.20;;
5209;SDS011;2624;48.048;11.706;2023-04-07T15:13:13;5.70;;;4.37;;
5209;SDS011;2624;48.048;11.706;2023-04-07T15:18:15;3.47;;;3.17;;
5209;SDS011;2624;48.048;11.706;2023-04-07T15:23:17;15.97;;;3.43;;
5209;SDS011;2624;48.048;11.706;2023-04-07T15:28:20;4.47;;;2.63;;
5209;SDS011;2624;48.048;11.706;2023-04-07T15:33:21;3.10;;;2.90;;
5209;SDS011;2624;48.048;11.706;2023-04-07T15:38:23;4.47;;;3.63;;
5209;SDS011;2624;48.048;11.706;2023-04-07T15:43:27;5.37;;;2.90;;
5209;SDS011;2624;48.048;11.706;2023-04-07T15:48:29;2.67;;;2.57;;
5209;SDS011;2624;48.048;11.706;2023-04-07T15:53:31;5.50;;;3.90;;
5209;SDS011;2624;48.048;11.706;2023-04-07T15:58:34;4.20;;;3.80;;
5209;SDS011;2624;48.048;11.706;2023-04-07T16:03:36;3.77;;;3.43;;
5209;SDS011;2624;48.048;11.706;2023-04-07T16:08:38;3.67;;;3.17;;
5209;SDS011;2624;48.048;11.706;2023-04-07T16:13:41;5.07;;;3.60;;
5209;SDS011;2624;48.048;11.706;2023-04-07T16:18:42;3.83;;;2.77;;
5209;SDS011;2624;48.048;11.706;2023-04-07T16:23:44;5.77;;;3.77;;
5209;SDS011;2624;48.048;11.706;2023-04-07T16:28:48;4.27;;;3.10;;
5209;SDS011;2624;48.048;11.706;2023-04-07T16:33:49;3.73;;;3.20;;
5209;SDS011;2624;48.048;11.706;2023-04-07T16:38:51;4.23;;;3.60;;
5209;SDS011;2624;48.048;11.706;2023-04-07T16:43:54;4.37;;;3.53;;
5209;SDS011;2624;48.048;11.706;2023-04-07T16:48:56;9.07;;;4.40;;
5209;SDS011;2624;48.048;11.706;2023-04-07T16:53:58;5.10;;;3.70;;
5209;SDS011;2624;48.048;11.706;2023-04-07T16:59:01;3.23;;;2.93;;
5209;SDS011;2624;48.048;11.706;2023-04-07T17:04:03;5.37;;;3.10;;
5209;SDS011;2624;48.048;11.706;2023-04-07T17:09:05;3.00;;;2.80;;
5209;SDS011;2624;48.048;11.706;2023-04-07T17:14:08;3.10;;;2.80;;
5209;SDS011;2624;48.048;11.706;2023-04-07T17:19:10;8.53;;;3.67;;
5209;SDS011;2624;48.048;11.706;2023-04-07T17:24:11;6.00;;;3.67;;
5209;SDS011;2624;48.048;11.706;2023-04-07T17:29:15;4.37;;;3.53;;
5209;SDS011;2624;48.048;11.706;2023-04-07T17:34:17;7.10;;;3.00;;
5209;SDS011;2624;48.048;11.706;2023-04-07T17:39:19;3.00;;;2.60;;
5209;SDS011;2624;48.048;11.706;2023-04-07T17:44:22;4.07;;;2.67;;
5209;SDS011;2624;48.048;11.706;2023-04-07T17:49:24;2.97;;;2.73;;
5209;SDS011;2624;48.048;11.706;2023-04-07T17:54:25;4.43;;;2.77;;
5209;SDS011;2624;48.048;11.706;2023-04-07T17:59:29;2.83;;;2.60;;
5209;SDS011;2624;48.048;11.706;2023-04-07T18:04:30;5.97;;;2.83;;
5209;SDS011;2624;48.048;11.706;2023-04-07T18:09:32;3.47;;;3.17;;
5209;SDS011;2624;48.048;11.706;2023-04-07T18:14:35;2.43;;;2.27;;
5209;SDS011;2624;48.048;11.706;2023-04-07T18:19:37;3.60;;;3.30;;
5209;SDS011;2624;48.048;11.706;2023-04-07T18:24:39;4.23;;;3.90;;
5209;SDS011;2624;48.048;11.706;2023-04-07T18:29:42;6.53;;;3.93;;
5209;SDS011;2624;48.048;11.706;2023-04-07T18:34:45;4.50;;;4.10;;
5209;SDS011;2624;48.048;11.706;2023-04-07T18:39:47;3.67;;;3.40;;
5209;SDS011;2624;48.048;11.706;2023-04-07T18:44:50;6.20;;;5.60;;
5209;SDS011;2624;48.048;11.706;2023-04-07T18:49:52;7.50;;;5.40;;
5209;SDS011;2624;48.048;11.706;2023-04-07T18:54:56;6.37;;;5.00;;
5209;SDS011;2624;48.048;11.706;2023-04-07T19:00:00;7.87;;;5.80;;
5209;SDS011;2624;48.048;11.706;2023-04-07T19:05:02;13.00;;;5.53;;
5209;SDS011;2624;48.048;11.706;2023-04-07T19:10:04;8.73;;;5.60;;
5209;SDS011;2624;48.048;11.706;2023-04-07T19:15:08;7.30;;;4.97;;
5209;SDS011;2624;48.048;11.706;2023-04-07T19:20:11;6.17;;;5.30;;
5209;SDS011;2624;48.048;11.706;2023-04-07T19:25:13;9.03;;;5.00;;
5209;SDS011;2624;48.048;11.706;2023-04-07T19:30:16;9.27;;;5.33;;
5209;SDS011;2624;48.048;11.706;2023-04-07T19:35:17;9.00;;;4.10;;
5209;SDS011;2624;48.048;11.706;2023-04-07T19:40:19;5.23;;;3.33;;
5209;SDS011;2624;48.048;11.706;2023-04-07T19:45:23;2.87;;;2.67;;
5209;SDS011;2624;48.048;11.706;2023-04-07T19:50:25;6.20;;;3.57;;
5209;SDS011;2624;48.048;11.706;2023-04-07T19:55:27;3.40;;;3.20;;
5209;SDS011;2624;48.048;11.706;2023-04-07T20:00:33;4.40;;;3.67;;
5209;SDS011;2624;48.048;11.706;2023-04-07T20:05:35;3.57;;;3.27;;
5209;SDS011;2624;48.048;11.706;2023-04-07T20:10:37;4.27;;;3.90;;
5209;SDS011;2624;48.048;11.706;2023-04-07T20:15:40;4.67;;;3.53;;
5209;SDS011;2624;48.048;11.706;2023-04-07T20:20:43;9.30;;;4.20;;
5209;SDS011;2624;48.048;11.706;2023-04-07T20:25:45;7.60;;;4.13;;
5209;SDS011;2624;48.048;11.706;2023-04-07T20:30:48;4.97;;;3.63;;
5209;SDS011;2624;48.048;11.706;2023-04-07T20:35:50;5.20;;;4.67;;
5209;SDS011;2624;48.048;11.706;2023-04-07T20:40:52;10.10;;;5.83;;
5209;SDS011;2624;48.048;11.706;2023-04-07T20:45:55;5.90;;;5.30;;
5209;SDS011;2624;48.048;11.706;2023-04-07T20:50:58;6.60;;;5.10;;
5209;SDS011;2624;48.048;11.706;2023-04-07T20:55:59;7.33;;;5.10;;
5209;SDS011;2624;48.048;11.706;2023-04-07T21:01:03;4.40;;;3.30;;
5209;SDS011;2624;48.048;11.706;2023-04-07T21:06:05;4.40;;;3.53;;
5209;SDS011;2624;48.048;11.706;2023-04-07T21:11:07;4.63;;;4.10;;
5209;SDS011;2624;48.048;11.706;2023-04-07T21:16:10;4.77;;;3.70;;
5209;SDS011;2624;48.048;11.706;2023-04-07T21:21:12;5.93;;;2.83;;
5209;SDS011;2624;48.048;11.706;2023-04-07T21:26:14;2.10;;;2.00;;
5209;SDS011;2624;48.048;11.706;2023-04-07T21:31:20;2.37;;;2.17;;
5209;SDS011;2624;48.048;11.706;2023-04-07T21:36:22;3.20;;;2.40;;
5209;SDS011;2624;48.048;11.706;2023-04-07T21:41:24;7.20;;;3.10;;
5209;SDS011;2624;48.048;11.706;2023-04-07T21:46:27;7.03;;;3.23;;
5209;SDS011;2624;48.048;11.706;2023-04-07T21:51:29;2.50;;;2.40;;
5209;SDS011;2624;48.048;11.706;2023-04-07T21:56:32;4.50;;;4.07;;
5209;SDS011;2624;48.048;11.706;2023-04-07T22:01:35;6.43;;;4.60;;
5209;SDS011;2624;48.048;11.706;2023-04-07T22:06:36;6.43;;;4.37;;
5209;SDS011;2624;48.048;11.706;2023-04-07T22:11:38;4.90;;;3.53;;
5209;SDS011;2624;48.048;11.706;2023-04-07T22:16:41;3.47;;;3.17;;
5209;SDS011;2624;48.048;11.706;2023-04-07T22:21:43;5.63;;;3.50;;
5209;SDS011;2624;48.048;11.706;2023-04-07T22:26:46;7.10;;;4.00;;
5209;SDS011;2624;48.048;11.706;2023-04-07T22:31:49;9.97;;;4.03;;
5209;SDS011;2624;48.048;11.706;2023-04-07T22:36:51;5.50;;;3.60;;
5209;SDS011;2624;48.048;11.706;2023-04-07T22:41:53;6.37;;;4.00;;
5209;SDS011;2624;48.048;11.706;2023-04-07T22:46:56;3.57;;;3.27;;
5209;SDS011;2624;48.048;11.706;2023-04-07T22:51:57;5.57;;;3.97;;
5209;SDS011;2624;48.048;11.706;2023-04-07T22:56:59;4.40;;;4.00;;
5209;SDS011;2624;48.048;11.706;2023-04-07T23:02:03;10.83;;;4.10;;
5209;SDS011;2624;48.048;11.706;2023-04-07T23:07:05;4.87;;;3.63;;
5209;SDS011;2624;48.048;11.706;2023-04-07T23:12:07;4.03;;;3.60;;
5209;SDS011;2624;48.048;11.706;2023-04-07T23:17:10;9.67;;;4.03;;
5209;SDS011;2624;48.048;11.706;2023-04-07T23:22:12;6.33;;;3.40;;
5209;SDS011;2624;48.048;11.706;2023-04-07T23:27:14;4.97;;;3.20;;
5209;SDS011;2624;48.048;11.706;2023-04-07T23:32:17;4.67;;;3.77;;
5209;SDS011;2624;48.048;11.706;2023-04-07T23:37:19;3.80;;;3.50;;
5209;SDS011;2624;48.048;11.706;2023-04-07T23:42:21;4.87;;;3.60;;
5209;SDS011;2624;48.048;11.706;2023-04-07T23:47:24;4.33;;;3.23;;
5209;SDS011;2624;48.048;11.706;2023-04-07T23:52:26;10.00;;;2.90;;
5209;SDS011;2624;48.048;11.706;2023-04-07T23:57:27;3.73;;;3.33;;
